Alexander, Kansas
Current Conditions -  °F | °C
As of 7:55 PM on Wednesday 26 Nov 2014 (Local Time) from KHYS Reporting Station
Overcast Overcast  
Wind Chill:   Ceiling: 12000
Heat Index:   Visibility: 10mi
Dew Point: -9°   Wind: 3mph
Humidity: 44%   Direction: 360°N
Pressure: 30.39"   Gusts: NA
Location:  38.47°N, 99.55°W
Report Text: KHYS 270155Z AUTO 36003KT 10SM SCT090 OVC120 02/M09 A3039 RMK AO1
Loading
Personal Weather Stations






























Interactive Weather Map New forecast layout! Learn more

10-Day Weather Forecast

Advertisements
Track Severe Weather on mobile